Time;durP1;ratioP1;P1;durP2;ratioP2;P2;SDS_P1;SDS_P2;PMS_P1;PMS_P2;Temp;Humidity;BMP_temperature;BMP_pressure;BME280_temperature;BME280_humidity;BME280_pressure;Samples;Min_cycle;Max_cycle;Signal;HPM_P1;HPM_P2
2022/07/20 00:00:51;;;;;;;10.65;2.90;;;;;;;;;;5124238;27;20031;-65
2022/07/20 00:03:18;;;;;;;6.18;2.50;;;;;;;;;;5118119;27;20031;-65
2022/07/20 00:05:45;;;;;;;11.27;2.88;;;;;;;;;;5120617;27;20079;-66
2022/07/20 00:08:12;;;;;;;5.18;2.50;;;;;;;;;;5123655;27;20047;-65
2022/07/20 00:13:23;;;;;;;6.60;2.60;;;;;;;;;;5121334;27;20106;-66
2022/07/20 00:15:49;;;;;;;9.02;2.90;;;;;;;;;;5129272;27;20130;-66
2022/07/20 00:18:15;;;;;;;7.25;2.42;;;;;;;;;;5100947;27;20164;-65
2022/07/20 00:20:42;;;;;;;9.25;2.63;;;;;;;;;;5122954;27;20050;-65
2022/07/20 00:23:08;;;;;;;8.48;3.15;;;;;;;;;;5086660;27;20402;-65
2022/07/20 00:25:34;;;;;;;11.55;3.22;;;;;;;;;;5126864;27;20038;-66
2022/07/20 00:28:01;;;;;;;5.95;2.50;;;;;;;;;;5123935;27;20502;-66
2022/07/20 00:30:27;;;;;;;10.07;3.05;;;;;;;;;;5123233;27;20142;-65
2022/07/20 00:32:53;;;;;;;5.30;2.63;;;;;;;;;;5122994;27;20393;-66
2022/07/20 00:35:19;;;;;;;8.90;2.78;;;;;;;;;;5121875;27;20141;-66
2022/07/20 00:37:46;;;;;;;9.63;3.22;;;;;;;;;;5104946;27;20175;-66
2022/07/20 00:40:13;;;;;;;7.93;3.40;;;;;;;;;;5125316;27;20440;-65
2022/07/20 00:42:40;;;;;;;8.25;3.33;;;;;;;;;;5103327;27;22058;-65
2022/07/20 00:45:07;;;;;;;9.13;2.88;;;;;;;;;;5117120;27;20047;-66
2022/07/20 00:47:33;;;;;;;7.07;3.00;;;;;;;;;;5120639;27;20443;-65
2022/07/20 00:49:59;;;;;;;7.05;2.80;;;;;;;;;;5124615;27;20121;-66
2022/07/20 00:52:26;;;;;;;7.78;3.00;;;;;;;;;;5119971;27;20711;-66
2022/07/20 00:54:53;;;;;;;8.40;2.72;;;;;;;;;;5104450;27;20558;-66
2022/07/20 00:57:20;;;;;;;8.75;2.97;;;;;;;;;;5119663;27;20356;-66
2022/07/20 00:59:46;;;;;;;5.90;2.72;;;;;;;;;;5120573;27;20034;-65
2022/07/20 01:02:13;;;;;;;9.70;3.45;;;;;;;;;;5123330;27;20050;-66
2022/07/20 01:04:39;;;;;;;7.05;2.72;;;;;;;;;;5122039;27;21230;-65
2022/07/20 01:07:06;;;;;;;10.38;2.90;;;;;;;;;;5103171;27;20051;-66
2022/07/20 01:09:32;;;;;;;4.75;2.58;;;;;;;;;;5120205;27;20027;-65
2022/07/20 01:11:58;;;;;;;5.75;2.90;;;;;;;;;;5101758;27;20135;-66
2022/07/20 01:14:24;;;;;;;11.93;2.83;;;;;;;;;;5119790;27;20078;-65
2022/07/20 01:16:51;;;;;;;8.38;2.97;;;;;;;;;;5123544;27;20054;-65
2022/07/20 01:19:17;;;;;;;7.90;2.78;;;;;;;;;;5099136;27;20403;-65
2022/07/20 01:21:43;;;;;;;9.45;3.03;;;;;;;;;;5102292;27;20053;-65
2022/07/20 01:24:11;;;;;;;5.32;2.88;;;;;;;;;;5118566;27;20084;-65
2022/07/20 01:26:38;;;;;;;8.23;3.28;;;;;;;;;;5119352;27;20100;-66
2022/07/20 01:29:04;;;;;;;6.88;2.70;;;;;;;;;;5096879;27;20089;-65
2022/07/20 01:31:30;;;;;;;7.00;2.72;;;;;;;;;;5121830;27;20205;-66
2022/07/20 01:33:57;;;;;;;6.97;2.95;;;;;;;;;;5118034;27;20126;-65
2022/07/20 01:36:23;;;;;;;9.13;2.67;;;;;;;;;;5119392;27;20451;-66
2022/07/20 01:38:49;;;;;;;7.68;3.53;;;;;;;;;;5122555;27;20063;-66
2022/07/20 01:41:15;;;;;;;5.45;2.60;;;;;;;;;;5102694;27;20151;-66
2022/07/20 01:43:41;;;;;;;12.93;3.38;;;;;;;;;;5122242;27;20045;-65
2022/07/20 01:46:08;;;;;;;9.13;3.78;;;;;;;;;;5125562;27;20043;-66
2022/07/20 01:48:34;;;;;;;9.27;3.72;;;;;;;;;;5105041;27;20435;-65
2022/07/20 01:51:00;;;;;;;7.70;2.95;;;;;;;;;;5103506;27;20045;-65
2022/07/20 01:53:26;;;;;;;6.55;2.55;;;;;;;;;;5118643;27;20096;-65
2022/07/20 01:55:52;;;;;;;9.30;2.92;;;;;;;;;;5103891;27;20453;-66
2022/07/20 01:58:19;;;;;;;10.82;3.10;;;;;;;;;;5115179;27;20129;-65
2022/07/20 02:00:45;;;;;;;7.55;3.47;;;;;;;;;;5124157;27;20047;-66
2022/07/20 02:03:11;;;;;;;10.40;2.90;;;;;;;;;;5125717;27;20117;-66
2022/07/20 02:05:38;;;;;;;8.07;3.40;;;;;;;;;;5129751;27;20050;-66
2022/07/20 02:08:04;;;;;;;8.10;3.00;;;;;;;;;;5124016;27;20121;-65
2022/07/20 02:10:30;;;;;;;8.98;2.97;;;;;;;;;;5101737;27;20070;-66
2022/07/20 02:12:57;;;;;;;9.55;3.55;;;;;;;;;;5126279;27;20553;-65
2022/07/20 02:18:09;;;;;;;10.73;3.08;;;;;;;;;;5118457;27;20039;-66
2022/07/20 02:20:35;;;;;;;6.32;3.00;;;;;;;;;;5100397;27;20154;-66
2022/07/20 02:23:03;;;;;;;6.03;2.85;;;;;;;;;;5120326;27;20130;-65
2022/07/20 02:25:29;;;;;;;8.18;3.40;;;;;;;;;;5115254;27;20091;-65
2022/07/20 02:27:55;;;;;;;11.23;3.20;;;;;;;;;;5121326;27;20031;-65
2022/07/20 02:30:21;;;;;;;8.82;3.28;;;;;;;;;;5107361;27;20073;-65
2022/07/20 02:32:48;;;;;;;9.07;3.22;;;;;;;;;;5122600;27;20046;-66
2022/07/20 02:35:14;;;;;;;11.30;3.25;;;;;;;;;;5119871;27;20038;-66
2022/07/20 02:37:40;;;;;;;7.03;3.13;;;;;;;;;;5103042;27;20043;-66
2022/07/20 02:40:07;;;;;;;7.28;3.08;;;;;;;;;;5118602;27;20131;-65
2022/07/20 02:42:33;;;;;;;11.80;3.63;;;;;;;;;;5100571;27;20051;-65
2022/07/20 02:44:59;;;;;;;6.45;3.00;;;;;;;;;;5102565;27;20119;-65
2022/07/20 02:47:25;;;;;;;8.93;3.30;;;;;;;;;;5097837;27;20379;-66
2022/07/20 02:49:51;;;;;;;11.48;3.20;;;;;;;;;;5099028;27;20162;-65
2022/07/20 02:52:17;;;;;;;9.57;3.30;;;;;;;;;;5120496;27;20039;-66
2022/07/20 02:54:43;;;;;;;7.38;3.20;;;;;;;;;;5115881;27;20049;-66
2022/07/20 02:57:10;;;;;;;10.57;3.20;;;;;;;;;;5121301;27;20122;-66
2022/07/20 02:59:36;;;;;;;8.80;3.20;;;;;;;;;;5118247;27;20047;-65
2022/07/20 03:02:02;;;;;;;6.57;3.60;;;;;;;;;;5123103;27;20185;-65
2022/07/20 03:04:28;;;;;;;10.27;3.25;;;;;;;;;;5124624;27;20031;-65
2022/07/20 03:06:54;;;;;;;11.05;3.50;;;;;;;;;;5119835;27;20190;-66
2022/07/20 03:09:21;;;;;;;9.38;3.40;;;;;;;;;;5126344;27;20047;-66
2022/07/20 03:11:47;;;;;;;9.10;3.22;;;;;;;;;;5122137;27;20473;-66
2022/07/20 03:14:13;;;;;;;9.35;3.13;;;;;;;;;;5116925;27;20065;-66
2022/07/20 03:16:39;;;;;;;6.25;3.95;;;;;;;;;;5109144;27;20086;-65
2022/07/20 03:19:05;;;;;;;14.95;3.47;;;;;;;;;;5127727;27;20047;-66
2022/07/20 03:21:31;;;;;;;8.55;3.30;;;;;;;;;;5118440;27;20046;-66
2022/07/20 03:23:58;;;;;;;7.93;3.58;;;;;;;;;;5124044;27;20049;-65
2022/07/20 03:26:24;;;;;;;10.23;3.45;;;;;;;;;;5126333;27;20144;-65
2022/07/20 03:28:50;;;;;;;7.30;3.38;;;;;;;;;;5124302;27;20084;-66
2022/07/20 03:31:16;;;;;;;6.07;3.22;;;;;;;;;;5110645;27;20566;-66
2022/07/20 03:33:42;;;;;;;8.02;3.83;;;;;;;;;;5101536;27;20174;-66
2022/07/20 03:36:09;;;;;;;10.20;3.13;;;;;;;;;;5109478;27;20043;-65
2022/07/20 03:38:35;;;;;;;7.78;3.80;;;;;;;;;;5122270;27;21408;-65
2022/07/20 03:41:02;;;;;;;7.70;3.70;;;;;;;;;;5111378;27;20035;-65
2022/07/20 03:43:28;;;;;;;8.18;3.42;;;;;;;;;;5105218;27;20199;-65
2022/07/20 03:45:54;;;;;;;11.30;3.35;;;;;;;;;;5132228;27;20047;-66
2022/07/20 03:48:20;;;;;;;10.23;3.90;;;;;;;;;;5123546;27;20813;-65
2022/07/20 03:50:46;;;;;;;10.90;3.45;;;;;;;;;;5124182;27;20043;-66
2022/07/20 03:53:13;;;;;;;7.45;3.40;;;;;;;;;;5130269;27;20131;-65
2022/07/20 03:55:39;;;;;;;6.53;3.25;;;;;;;;;;5119970;27;20039;-65
2022/07/20 03:58:06;;;;;;;8.88;3.75;;;;;;;;;;5121183;27;20039;-65
2022/07/20 04:00:32;;;;;;;7.25;3.50;;;;;;;;;;5084275;27;21576;-66
2022/07/20 04:02:58;;;;;;;9.23;3.30;;;;;;;;;;5101205;27;20592;-65
2022/07/20 04:05:24;;;;;;;7.68;3.53;;;;;;;;;;5118433;27;20055;-65
2022/07/20 04:07:51;;;;;;;10.38;3.53;;;;;;;;;;5101211;27;20043;-65
2022/07/20 04:10:17;;;;;;;9.23;3.83;;;;;;;;;;5122470;27;20035;-65
2022/07/20 04:12:43;;;;;;;12.73;3.88;;;;;;;;;;5121609;27;20051;-65
2022/07/20 04:15:09;;;;;;;8.18;3.92;;;;;;;;;;5127136;27;20047;-66
2022/07/20 04:17:35;;;;;;;12.30;3.47;;;;;;;;;;5118611;27;20096;-66
2022/07/20 04:20:04;;;;;;;6.47;3.53;;;;;;;;;;5125661;27;20042;-65
2022/07/20 04:22:30;;;;;;;9.35;3.58;;;;;;;;;;5120830;27;20039;-65
2022/07/20 04:24:56;;;;;;;7.60;3.53;;;;;;;;;;5127030;27;20039;-65
2022/07/20 04:27:23;;;;;;;11.95;3.63;;;;;;;;;;5103209;27;20053;-66
2022/07/20 04:29:49;;;;;;;8.50;3.38;;;;;;;;;;5121273;27;20031;-66
2022/07/20 04:32:15;;;;;;;8.25;3.88;;;;;;;;;;5127719;27;20047;-66
2022/07/20 04:34:41;;;;;;;13.23;4.20;;;;;;;;;;5128386;27;20066;-66
2022/07/20 04:37:08;;;;;;;10.50;3.92;;;;;;;;;;5132725;27;20454;-66
2022/07/20 04:39:34;;;;;;;8.98;3.47;;;;;;;;;;5114166;27;20065;-66
2022/07/20 04:42:00;;;;;;;12.10;3.60;;;;;;;;;;5115258;27;20051;-67
2022/07/20 04:44:27;;;;;;;15.23;4.00;;;;;;;;;;5115122;27;20039;-66
2022/07/20 04:46:53;;;;;;;10.07;4.22;;;;;;;;;;5127523;27;20067;-66
2022/07/20 04:49:19;;;;;;;8.90;4.30;;;;;;;;;;5110864;27;20382;-65
2022/07/20 04:51:45;;;;;;;7.57;3.78;;;;;;;;;;5094233;27;20095;-65
2022/07/20 04:54:11;;;;;;;6.22;3.58;;;;;;;;;;5130486;27;20724;-65
2022/07/20 04:56:38;;;;;;;7.93;3.70;;;;;;;;;;5128741;27;20039;-65
2022/07/20 04:59:04;;;;;;;7.00;3.28;;;;;;;;;;5134770;27;20093;-65
2022/07/20 05:01:31;;;;;;;6.35;3.63;;;;;;;;;;5117401;27;20084;-65
2022/07/20 05:03:57;;;;;;;6.47;3.33;;;;;;;;;;5136235;27;20131;-65
2022/07/20 05:06:23;;;;;;;6.75;3.78;;;;;;;;;;5123976;27;20039;-65
2022/07/20 05:08:50;;;;;;;9.10;3.50;;;;;;;;;;5131104;27;20078;-65
2022/07/20 05:11:16;;;;;;;10.35;3.63;;;;;;;;;;5138660;27;20056;-65
2022/07/20 05:13:42;;;;;;;6.40;3.40;;;;;;;;;;5137973;27;20095;-66
2022/07/20 05:16:09;;;;;;;7.93;3.40;;;;;;;;;;5139762;27;20115;-65
2022/07/20 05:18:35;;;;;;;8.70;3.70;;;;;;;;;;5126634;27;20073;-65
2022/07/20 05:21:01;;;;;;;8.32;3.45;;;;;;;;;;5123054;27;20047;-65
2022/07/20 05:23:27;;;;;;;9.90;3.58;;;;;;;;;;5127281;27;20074;-65
2022/07/20 05:25:54;;;;;;;8.65;3.50;;;;;;;;;;5126351;27;20050;-65
2022/07/20 05:28:20;;;;;;;6.97;3.83;;;;;;;;;;5104782;27;20485;-65
2022/07/20 05:30:48;;;;;;;10.32;3.60;;;;;;;;;;5108827;27;20424;-65
2022/07/20 05:33:14;;;;;;;9.05;4.00;;;;;;;;;;5126397;27;20043;-65
2022/07/20 05:35:41;;;;;;;8.27;3.55;;;;;;;;;;5125483;27;20046;-65
2022/07/20 05:38:07;;;;;;;12.63;3.85;;;;;;;;;;5126441;27;20031;-65
2022/07/20 05:40:33;;;;;;;8.88;3.55;;;;;;;;;;5126954;27;20366;-65
2022/07/20 05:42:59;;;;;;;8.02;3.55;;;;;;;;;;5126188;27;20043;-65
2022/07/20 05:45:25;;;;;;;8.57;3.53;;;;;;;;;;5125415;27;20103;-65
2022/07/20 05:47:52;;;;;;;7.90;3.72;;;;;;;;;;5125954;27;20035;-65
2022/07/20 05:50:18;;;;;;;9.77;3.90;;;;;;;;;;5127634;27;20046;-65
2022/07/20 05:52:44;;;;;;;10.95;4.07;;;;;;;;;;5126987;27;20126;-65
2022/07/20 05:55:10;;;;;;;9.40;3.70;;;;;;;;;;5125016;27;20047;-65
2022/07/20 05:57:38;;;;;;;10.93;4.63;;;;;;;;;;5125483;27;20043;-65
2022/07/20 06:00:04;;;;;;;9.23;4.07;;;;;;;;;;5119433;27;20042;-65
2022/07/20 06:02:30;;;;;;;8.68;3.83;;;;;;;;;;5130005;27;20502;-65
2022/07/20 06:04:56;;;;;;;7.70;4.45;;;;;;;;;;5115261;27;20046;-65
2022/07/20 06:07:23;;;;;;;11.27;4.35;;;;;;;;;;5129018;27;20122;-65
2022/07/20 06:09:49;;;;;;;7.95;4.15;;;;;;;;;;5128031;27;20131;-65
2022/07/20 06:12:15;;;;;;;9.85;4.70;;;;;;;;;;5125655;27;20042;-66
2022/07/20 06:14:41;;;;;;;13.70;3.83;;;;;;;;;;5127978;27;20558;-65
2022/07/20 06:17:11;;;;;;;12.25;3.97;;;;;;;;;;5110812;27;20059;-65
2022/07/20 06:19:37;;;;;;;8.93;4.63;;;;;;;;;;5137233;27;20142;-65
2022/07/20 06:22:04;;;;;;;10.88;4.57;;;;;;;;;;5133817;27;20043;-65
2022/07/20 06:24:30;;;;;;;9.35;4.35;;;;;;;;;;5134243;27;20055;-65
2022/07/20 06:26:56;;;;;;;11.20;4.63;;;;;;;;;;5125348;27;20483;-65
2022/07/20 06:29:22;;;;;;;16.83;4.82;;;;;;;;;;5127121;27;20039;-65
2022/07/20 06:31:48;;;;;;;13.02;5.25;;;;;;;;;;5125600;27;20050;-65
2022/07/20 06:34:15;;;;;;;15.18;5.68;;;;;;;;;;5107522;27;20135;-65
2022/07/20 06:36:44;;;;;;;14.43;6.88;;;;;;;;;;5129904;27;20084;-65
2022/07/20 06:39:10;;;;;;;14.18;6.53;;;;;;;;;;5134239;27;20489;-65
2022/07/20 06:41:36;;;;;;;15.95;7.03;;;;;;;;;;5129596;27;20039;-65
2022/07/20 06:44:02;;;;;;;13.02;6.60;;;;;;;;;;5131129;27;20179;-65
2022/07/20 06:46:28;;;;;;;15.90;7.40;;;;;;;;;;5129921;27;20043;-65
2022/07/20 06:48:54;;;;;;;17.60;7.43;;;;;;;;;;5135444;27;20055;-65
2022/07/20 06:51:24;;;;;;;15.23;7.10;;;;;;;;;;5111647;27;20054;-65
2022/07/20 06:53:50;;;;;;;33.78;8.15;;;;;;;;;;5126041;27;20043;-65
2022/07/20 06:56:16;;;;;;;11.27;7.32;;;;;;;;;;5125528;27;20039;-65
2022/07/20 06:58:43;;;;;;;15.15;7.50;;;;;;;;;;5109117;27;20245;-65
2022/07/20 07:01:10;;;;;;;15.30;8.32;;;;;;;;;;5135185;27;20050;-65
2022/07/20 07:03:36;;;;;;;16.73;8.25;;;;;;;;;;5138303;27;20042;-65
2022/07/20 07:06:02;;;;;;;15.25;9.05;;;;;;;;;;5122943;27;20070;-65
2022/07/20 07:08:28;;;;;;;16.88;9.80;;;;;;;;;;5140623;27;20055;-65
2022/07/20 07:10:54;;;;;;;16.83;9.90;;;;;;;;;;5119744;27;20164;-65
2022/07/20 07:13:21;;;;;;;16.30;8.80;;;;;;;;;;5111943;27;20051;-65
2022/07/20 07:15:47;;;;;;;18.48;9.00;;;;;;;;;;5130949;27;20171;-65
2022/07/20 07:18:13;;;;;;;16.52;10.93;;;;;;;;;;5134369;27;20058;-65
2022/07/20 07:20:39;;;;;;;18.13;11.57;;;;;;;;;;5130356;27;20050;-66
2022/07/20 07:23:05;;;;;;;20.83;11.07;;;;;;;;;;5135018;27;20035;-65
2022/07/20 07:25:32;;;;;;;20.17;11.80;;;;;;;;;;5133163;27;20042;-65
2022/07/20 07:27:58;;;;;;;20.33;12.02;;;;;;;;;;5113901;27;20152;-66
2022/07/20 07:30:24;;;;;;;23.98;14.68;;;;;;;;;;5133735;27;20532;-65
2022/07/20 07:32:50;;;;;;;29.48;14.68;;;;;;;;;;5132500;27;20035;-65
2022/07/20 07:35:17;;;;;;;19.58;12.52;;;;;;;;;;5138003;27;20034;-65
2022/07/20 07:37:43;;;;;;;24.75;14.38;;;;;;;;;;5119973;27;20046;-65
2022/07/20 07:40:09;;;;;;;34.83;15.00;;;;;;;;;;5135301;27;20579;-65
2022/07/20 07:42:35;;;;;;;32.65;16.95;;;;;;;;;;5136096;27;20035;-65
2022/07/20 07:45:06;;;;;;;41.15;18.50;;;;;;;;;;5142015;27;20149;-65
2022/07/20 07:47:33;;;;;;;32.83;18.13;;;;;;;;;;5132673;27;20055;-65
2022/07/20 07:49:59;;;;;;;33.92;18.27;;;;;;;;;;5125041;27;20459;-66
2022/07/20 07:52:25;;;;;;;29.10;17.80;;;;;;;;;;5126453;27;20110;-65
2022/07/20 07:54:51;;;;;;;31.15;17.92;;;;;;;;;;5116553;27;20406;-65
2022/07/20 07:57:18;;;;;;;33.92;20.17;;;;;;;;;;5131438;27;20042;-66
2022/07/20 07:59:44;;;;;;;33.92;19.15;;;;;;;;;;5139599;27;20175;-66
2022/07/20 08:02:10;;;;;;;31.67;18.92;;;;;;;;;;5129382;27;20074;-65
2022/07/20 08:04:36;;;;;;;27.05;18.88;;;;;;;;;;5133343;27;20038;-65
2022/07/20 08:07:02;;;;;;;35.45;20.25;;;;;;;;;;5135249;27;20097;-65
2022/07/20 08:09:29;;;;;;;33.67;20.60;;;;;;;;;;5132767;27;20089;-66
2022/07/20 08:11:55;;;;;;;36.13;20.25;;;;;;;;;;5133507;27;20057;-65
2022/07/20 08:14:22;;;;;;;40.05;20.88;;;;;;;;;;5135262;27;20051;-66
2022/07/20 08:16:48;;;;;;;35.97;20.85;;;;;;;;;;5133184;27;20039;-66
2022/07/20 08:19:14;;;;;;;33.17;21.02;;;;;;;;;;5130815;27;20122;-65
2022/07/20 08:21:40;;;;;;;31.55;18.98;;;;;;;;;;5133977;27;20130;-66
2022/07/20 08:24:07;;;;;;;35.05;20.13;;;;;;;;;;5129124;27;20087;-65
2022/07/20 08:26:33;;;;;;;33.45;19.73;;;;;;;;;;5132104;27;20538;-65
2022/07/20 08:28:59;;;;;;;30.08;20.00;;;;;;;;;;5132359;27;20035;-66
2022/07/20 08:31:25;;;;;;;32.83;19.17;;;;;;;;;;5127315;27;20031;-65
2022/07/20 08:33:51;;;;;;;30.55;20.02;;;;;;;;;;5128030;27;20032;-65
2022/07/20 08:36:18;;;;;;;27.20;18.65;;;;;;;;;;5135339;27;20046;-65
2022/07/20 08:38:44;;;;;;;35.88;19.40;;;;;;;;;;5116497;27;20423;-65
2022/07/20 08:41:10;;;;;;;35.83;20.42;;;;;;;;;;5132399;27;20115;-65
2022/07/20 08:43:36;;;;;;;30.58;20.20;;;;;;;;;;5102185;27;20500;-65
2022/07/20 08:46:03;;;;;;;38.47;21.00;;;;;;;;;;5132848;27;20035;-66
2022/07/20 08:48:29;;;;;;;32.55;20.10;;;;;;;;;;5135737;27;20490;-65
2022/07/20 08:50:55;;;;;;;30.55;21.50;;;;;;;;;;5136341;27;20134;-65
2022/07/20 08:53:22;;;;;;;35.70;22.05;;;;;;;;;;5113869;27;20043;-65
2022/07/20 08:55:48;;;;;;;32.60;21.42;;;;;;;;;;5135377;27;20046;-66
2022/07/20 08:58:14;;;;;;;32.03;20.20;;;;;;;;;;5135519;27;20131;-65
2022/07/20 09:00:40;;;;;;;35.60;22.05;;;;;;;;;;5117041;27;20147;-65
2022/07/20 09:03:08;;;;;;;39.40;22.00;;;;;;;;;;5138726;27;20035;-65
2022/07/20 09:05:35;;;;;;;36.67;21.58;;;;;;;;;;5130987;27;20114;-65
2022/07/20 09:08:02;;;;;;;44.92;22.40;;;;;;;;;;5132838;27;20054;-65
2022/07/20 09:10:30;;;;;;;30.45;20.27;;;;;;;;;;5129918;27;20059;-65
2022/07/20 09:13:03;;;;;;;39.60;21.20;;;;;;;;;;5135052;27;20127;-66
2022/07/20 09:15:29;;;;;;;37.00;21.33;;;;;;;;;;5111839;27;20142;-65
2022/07/20 09:18:07;;;;;;;31.90;21.20;;;;;;;;;;5115959;27;20046;-65
2022/07/20 09:20:34;;;;;;;31.00;20.85;;;;;;;;;;5132348;27;20054;-65
2022/07/20 09:23:01;;;;;;;31.67;18.67;;;;;;;;;;5132656;27;20035;-65
2022/07/20 09:25:27;;;;;;;28.25;17.73;;;;;;;;;;5132367;27;20043;-65
2022/07/20 09:27:54;;;;;;;24.38;15.68;;;;;;;;;;5130743;27;20111;-65
2022/07/20 09:30:20;;;;;;;28.33;14.60;;;;;;;;;;5117566;27;20061;-65
2022/07/20 09:32:51;;;;;;;22.33;12.88;;;;;;;;;;5120449;27;20467;-65
2022/07/20 09:35:17;;;;;;;27.80;13.27;;;;;;;;;;5129179;27;20057;-65
2022/07/20 09:37:43;;;;;;;31.92;14.23;;;;;;;;;;5138572;27;20031;-65
2022/07/20 09:40:10;;;;;;;25.27;14.30;;;;;;;;;;5138503;27;20039;-65
2022/07/20 09:42:37;;;;;;;31.50;14.40;;;;;;;;;;5137022;27;20088;-66
2022/07/20 09:45:20;;;;;;;22.67;13.00;;;;;;;;;;5120959;27;20043;-65
2022/07/20 09:48:03;;;;;;;24.25;14.23;;;;;;;;;;5135406;27;20092;-66
2022/07/20 09:50:30;;;;;;;24.42;13.60;;;;;;;;;;5131640;27;20058;-65
2022/07/20 09:52:57;;;;;;;21.05;12.05;;;;;;;;;;5110183;27;20543;-65
2022/07/20 09:55:23;;;;;;;18.33;10.52;;;;;;;;;;5112806;27;21309;-66
2022/07/20 09:57:51;;;;;;;16.75;10.07;;;;;;;;;;5133908;27;20621;-66
2022/07/20 10:00:18;;;;;;;14.32;8.95;;;;;;;;;;5133842;27;20405;-66
2022/07/20 10:02:48;;;;;;;16.65;8.70;;;;;;;;;;5125486;27;20043;-65
2022/07/20 10:05:14;;;;;;;16.30;9.32;;;;;;;;;;5128974;27;20610;-66
2022/07/20 10:07:43;;;;;;;21.35;10.32;;;;;;;;;;5127574;27;20102;-66
2022/07/20 10:10:09;;;;;;;19.98;8.55;;;;;;;;;;5127352;27;20042;-66
2022/07/20 10:12:35;;;;;;;18.67;9.23;;;;;;;;;;5109893;27;20046;-66
2022/07/20 10:15:03;;;;;;;16.63;9.05;;;;;;;;;;5111152;27;20051;-66
2022/07/20 10:17:31;;;;;;;24.13;9.02;;;;;;;;;;5128175;27;20376;-65
2022/07/20 10:19:57;;;;;;;15.93;7.95;;;;;;;;;;5109854;27;20050;-66
2022/07/20 10:22:23;;;;;;;19.05;7.72;;;;;;;;;;5128792;27;20039;-66
2022/07/20 10:25:13;;;;;;;15.55;7.80;;;;;;;;;;5113106;27;20049;-66
2022/07/20 10:27:39;;;;;;;13.73;7.18;;;;;;;;;;5128349;27;20039;-66
2022/07/20 10:30:19;;;;;;;16.75;8.27;;;;;;;;;;5128444;27;20043;-66
2022/07/20 10:32:56;;;;;;;17.00;7.63;;;;;;;;;;5134119;27;20197;-66
2022/07/20 10:35:28;;;;;;;20.08;8.00;;;;;;;;;;5133983;27;20525;-66
2022/07/20 10:37:56;;;;;;;17.03;6.83;;;;;;;;;;5117694;27;20054;-66
2022/07/20 10:40:23;;;;;;;12.52;7.05;;;;;;;;;;5114980;27;20747;-66
2022/07/20 10:42:53;;;;;;;16.77;6.53;;;;;;;;;;5114249;27;20067;-66
2022/07/20 10:45:19;;;;;;;15.95;7.20;;;;;;;;;;5132622;27;20050;-66
2022/07/20 10:47:48;;;;;;;20.38;6.60;;;;;;;;;;5129121;27;20498;-66
2022/07/20 10:50:19;;;;;;;11.55;6.35;;;;;;;;;;5128400;27;20525;-66
2022/07/20 10:52:46;;;;;;;15.48;6.45;;;;;;;;;;5130783;27;20057;-66
2022/07/20 10:55:31;;;;;;;14.55;6.20;;;;;;;;;;5110636;27;20041;-66
2022/07/20 10:57:57;;;;;;;17.33;7.32;;;;;;;;;;5109889;27;20074;-66
2022/07/20 11:00:29;;;;;;;12.27;6.80;;;;;;;;;;5131386;27;20031;-66
2022/07/20 11:02:56;;;;;;;11.43;6.30;;;;;;;;;;5132599;27;20042;-66
2022/07/20 11:05:23;;;;;;;18.17;7.43;;;;;;;;;;5112213;27;20051;-66
2022/07/20 11:07:49;;;;;;;15.70;8.40;;;;;;;;;;5129652;27;20074;-66
2022/07/20 11:10:20;;;;;;;17.77;8.35;;;;;;;;;;5132023;27;20035;-66
2022/07/20 11:12:55;;;;;;;17.30;8.10;;;;;;;;;;5133545;27;20034;-66
2022/07/20 11:15:21;;;;;;;14.82;8.05;;;;;;;;;;5133796;27;20046;-66
2022/07/20 11:17:48;;;;;;;15.00;8.10;;;;;;;;;;5130851;27;20039;-66
2022/07/20 11:20:20;;;;;;;18.60;8.25;;;;;;;;;;5133408;27;20047;-66
2022/07/20 11:22:46;;;;;;;17.27;7.90;;;;;;;;;;5132693;27;20040;-66
2022/07/20 11:25:12;;;;;;;18.05;8.10;;;;;;;;;;5133742;27;20126;-66
2022/07/20 11:27:38;;;;;;;14.65;7.45;;;;;;;;;;5135058;27;20087;-66
2022/07/20 11:30:06;;;;;;;16.75;7.68;;;;;;;;;;5132772;27;20263;-66
2022/07/20 11:32:32;;;;;;;16.00;7.28;;;;;;;;;;5129340;27;20058;-66
2022/07/20 11:34:58;;;;;;;13.90;7.40;;;;;;;;;;5110059;27;20130;-66
2022/07/20 11:37:25;;;;;;;16.08;7.90;;;;;;;;;;5111483;27;20054;-66
2022/07/20 11:39:51;;;;;;;9.65;6.38;;;;;;;;;;5131062;27;20047;-66
2022/07/20 11:42:18;;;;;;;13.88;6.75;;;;;;;;;;5106577;27;20100;-66
2022/07/20 11:45:00;;;;;;;14.85;7.30;;;;;;;;;;5134806;27;20529;-66
2022/07/20 11:47:26;;;;;;;;;;;;;;;;;;5120933;27;20054;-66
2022/07/20 11:50:10;;;;;;;13.43;7.60;;;;;;;;;;5120942;27;19929;-66
2022/07/20 11:52:38;;;;;;;15.07;8.13;;;;;;;;;;5137897;27;21994;-66
2022/07/20 11:55:04;;;;;;;13.32;7.50;;;;;;;;;;5138638;27;20054;-66
2022/07/20 11:57:31;;;;;;;15.98;6.72;;;;;;;;;;5139758;27;21453;-66
2022/07/20 11:59:57;;;;;;;12.35;7.47;;;;;;;;;;5121142;27;20039;-66
2022/07/20 12:02:23;;;;;;;15.57;7.00;;;;;;;;;;5117727;27;20034;-66
2022/07/20 12:04:49;;;;;;;16.67;7.25;;;;;;;;;;5138082;27;20176;-66
2022/07/20 12:10:08;;;;;;;11.07;5.55;;;;;;;;;;5136015;27;20042;-66
2022/07/20 12:12:44;;;;;;;9.82;4.90;;;;;;;;;;5133378;27;20035;-66
2022/07/20 12:15:10;;;;;;;9.77;4.68;;;;;;;;;;5121993;27;20077;-66
2022/07/20 12:17:46;;;;;;;12.88;4.80;;;;;;;;;;5119921;27;20051;-66
2022/07/20 12:20:12;;;;;;;11.10;4.75;;;;;;;;;;5116234;27;20043;-66
2022/07/20 12:22:49;;;;;;;8.20;4.15;;;;;;;;;;5117546;27;20054;-66
2022/07/20 12:25:15;;;;;;;8.73;3.90;;;;;;;;;;5115616;27;20113;-66
2022/07/20 12:27:42;;;;;;;8.13;3.90;;;;;;;;;;5136405;27;20709;-66
2022/07/20 12:30:26;;;;;;;10.43;4.63;;;;;;;;;;5136880;27;20058;-66
2022/07/20 12:33:02;;;;;;;8.32;4.10;;;;;;;;;;5131316;27;20047;-66
2022/07/20 12:35:28;;;;;;;9.18;5.03;;;;;;;;;;5132774;27;20137;-66
2022/07/20 12:37:56;;;;;;;11.25;5.00;;;;;;;;;;5130627;27;20035;-66
2022/07/20 12:40:31;;;;;;;12.30;4.97;;;;;;;;;;5118988;27;20454;-63
2022/07/20 12:42:57;;;;;;;9.95;4.93;;;;;;;;;;5120954;27;20046;-63
2022/07/20 12:45:23;;;;;;;10.48;4.95;;;;;;;;;;5138068;27;21761;-63
2022/07/20 12:47:50;;;;;;;9.18;5.45;;;;;;;;;;5140432;27;20513;-63
2022/07/20 12:50:16;;;;;;;10.00;5.15;;;;;;;;;;5111540;27;20066;-63
2022/07/20 12:52:42;;;;;;;10.50;4.70;;;;;;;;;;5112124;27;20382;-63
2022/07/20 12:55:08;;;;;;;12.55;5.70;;;;;;;;;;5133277;27;20489;-63
2022/07/20 12:57:34;;;;;;;14.05;5.97;;;;;;;;;;5132725;27;20085;-63
2022/07/20 13:00:01;;;;;;;9.05;5.28;;;;;;;;;;5133198;27;20159;-63
2022/07/20 13:02:27;;;;;;;9.95;5.55;;;;;;;;;;5133104;27;20212;-63
2022/07/20 13:04:53;;;;;;;10.18;5.78;;;;;;;;;;5132825;27;20035;-63
2022/07/20 13:07:19;;;;;;;11.70;6.00;;;;;;;;;;5115381;27;20606;-63
2022/07/20 13:09:45;;;;;;;12.52;6.05;;;;;;;;;;5114539;27;20080;-63
2022/07/20 13:12:12;;;;;;;8.63;5.55;;;;;;;;;;5095927;27;20055;-63
2022/07/20 13:14:39;;;;;;;11.77;5.80;;;;;;;;;;5112404;27;20039;-63
2022/07/20 13:17:05;;;;;;;13.55;6.22;;;;;;;;;;5133794;27;20087;-63
2022/07/20 13:19:31;;;;;;;15.75;6.30;;;;;;;;;;5132316;27;20066;-63
2022/07/20 13:21:57;;;;;;;12.13;5.75;;;;;;;;;;5132212;27;20050;-63
2022/07/20 13:24:23;;;;;;;10.55;5.45;;;;;;;;;;5133369;27;20054;-63
2022/07/20 13:26:50;;;;;;;10.15;5.80;;;;;;;;;;5133206;27;20113;-63
2022/07/20 13:29:16;;;;;;;9.10;5.35;;;;;;;;;;5113846;27;20050;-65
2022/07/20 13:31:42;;;;;;;11.65;5.78;;;;;;;;;;5130239;27;20039;-66
2022/07/20 13:34:08;;;;;;;11.95;5.47;;;;;;;;;;5134214;27;20041;-66
2022/07/20 13:36:35;;;;;;;12.95;5.90;;;;;;;;;;5137103;27;20122;-66
2022/07/20 13:39:01;;;;;;;8.75;5.25;;;;;;;;;;5108360;27;20047;-66
2022/07/20 13:41:27;;;;;;;10.80;6.07;;;;;;;;;;5126061;27;20082;-66
2022/07/20 13:43:53;;;;;;;12.73;5.70;;;;;;;;;;5125035;27;20062;-66
2022/07/20 13:46:20;;;;;;;9.77;6.25;;;;;;;;;;5125222;27;20478;-66
2022/07/20 13:48:46;;;;;;;12.70;6.13;;;;;;;;;;5125662;27;20034;-66
2022/07/20 13:51:13;;;;;;;8.20;5.15;;;;;;;;;;5108025;27;20047;-66
2022/07/20 13:53:39;;;;;;;9.80;6.32;;;;;;;;;;5127375;27;20035;-66
2022/07/20 13:56:07;;;;;;;12.95;5.90;;;;;;;;;;5124510;27;20039;-66
2022/07/20 13:58:34;;;;;;;11.15;6.38;;;;;;;;;;5124608;27;20050;-66
2022/07/20 14:01:00;;;;;;;14.82;6.35;;;;;;;;;;5136916;27;20486;-66
2022/07/20 14:03:26;;;;;;;12.13;5.95;;;;;;;;;;5133778;27;20046;-66
2022/07/20 14:05:52;;;;;;;12.73;5.72;;;;;;;;;;5135062;27;20569;-66
2022/07/20 14:08:19;;;;;;;11.00;5.70;;;;;;;;;;5134970;27;20046;-66
2022/07/20 14:10:45;;;;;;;10.90;5.93;;;;;;;;;;5137232;27;20150;-66
2022/07/20 14:13:12;;;;;;;11.38;6.45;;;;;;;;;;5136789;27;20553;-66
2022/07/20 14:15:38;;;;;;;11.25;6.20;;;;;;;;;;5131222;27;20188;-66
2022/07/20 14:18:05;;;;;;;7.55;4.78;;;;;;;;;;5133254;27;20454;-66
2022/07/20 14:20:31;;;;;;;13.23;5.63;;;;;;;;;;5132606;27;20051;-65
2022/07/20 14:22:57;;;;;;;11.00;6.03;;;;;;;;;;5129713;27;20031;-66
2022/07/20 14:25:23;;;;;;;11.52;5.65;;;;;;;;;;5120129;27;20142;-66
2022/07/20 14:27:50;;;;;;;9.88;5.00;;;;;;;;;;5134934;27;20042;-66
2022/07/20 14:30:16;;;;;;;10.63;5.15;;;;;;;;;;5115302;27;20046;-66
2022/07/20 14:32:42;;;;;;;9.60;4.65;;;;;;;;;;5113386;27;20056;-65
2022/07/20 14:35:09;;;;;;;9.32;4.72;;;;;;;;;;5138605;27;20039;-65
2022/07/20 14:37:36;;;;;;;12.30;4.72;;;;;;;;;;5115366;27;20589;-65
2022/07/20 14:40:03;;;;;;;8.80;4.50;;;;;;;;;;5133874;27;20047;-66